Potter, Nebraska
Current Conditions -  °F | °C
As of 12:55 PM on Thursday 27 Nov 2014 (Local Time) from KIBM Reporting Station
Broken Clouds Broken Clouds  
Wind Chill: 44°   Ceiling: 11000
Heat Index: 49°   Visibility: 10mi
Dew Point: 30°   Wind: 16mph
Humidity: 47%   Direction: 270°W
Pressure: 30.05"   Gusts: NA
Location:  41.22°N, 103.32°W
Report Text: KIBM 271955Z AUTO 27014KT 10SM BKN110 10/M01 A3005 RMK AO2 T00971013
Loading
Personal Weather Stations






























Interactive Weather Map New forecast layout! Learn more

10-Day Weather Forecast

Advertisements
Track Severe Weather on mobile